sensor_id;sensor_type;location;lat;lon;timestamp;pressure;altitude;pressure_sealevel;temperature;humidity
45078;BME280;60508;42.622;25.416;2023-04-21T00:00:49;96336.13;;;12.99;76.03
45078;BME280;60508;42.622;25.416;2023-04-21T00:03:16;96349.84;;;12.82;76.43
45078;BME280;60508;42.622;25.416;2023-04-21T00:05:45;96349.56;;;12.78;76.88
45078;BME280;60508;42.622;25.416;2023-04-21T00:08:11;96344.72;;;12.65;78.00
45078;BME280;60508;42.622;25.416;2023-04-21T00:10:37;96337.94;;;12.52;79.27
45078;BME280;60508;42.622;25.416;2023-04-21T00:13:03;96335.47;;;12.30;79.91
45078;BME280;60508;42.622;25.416;2023-04-21T00:15:29;96337.88;;;12.21;80.55
45078;BME280;60508;42.622;25.416;2023-04-21T00:17:55;96328.75;;;12.37;79.84
45078;BME280;60508;42.622;25.416;2023-04-21T00:20:23;96327.97;;;12.47;79.01
45078;BME280;60508;42.622;25.416;2023-04-21T00:22:52;96326.28;;;12.20;80.08
45078;BME280;60508;42.622;25.416;2023-04-21T00:25:18;96326.06;;;12.37;79.22
45078;BME280;60508;42.622;25.416;2023-04-21T00:27:44;96312.06;;;12.46;77.32
45078;BME280;60508;42.622;25.416;2023-04-21T00:30:10;96309.66;;;12.59;76.92
45078;BME280;60508;42.622;25.416;2023-04-21T00:32:36;96309.38;;;12.56;77.15
45078;BME280;60508;42.622;25.416;2023-04-21T00:35:03;96311.00;;;12.47;77.67
45078;BME280;60508;42.622;25.416;2023-04-21T00:37:29;96310.75;;;12.53;76.78
45078;BME280;60508;42.622;25.416;2023-04-21T00:39:55;96308.84;;;12.49;77.77
45078;BME280;60508;42.622;25.416;2023-04-21T00:42:21;96303.72;;;12.63;77.39
45078;BME280;60508;42.622;25.416;2023-04-21T00:44:48;96311.00;;;12.57;77.70
45078;BME280;60508;42.622;25.416;2023-04-21T00:47:14;96305.63;;;12.47;78.70
45078;BME280;60508;42.622;25.416;2023-04-21T00:49:41;96312.91;;;12.62;77.24
45078;BME280;60508;42.622;25.416;2023-04-21T00:52:08;96310.75;;;12.64;76.32
45078;BME280;60508;42.622;25.416;2023-04-21T00:54:35;96309.41;;;12.71;75.33
45078;BME280;60508;42.622;25.416;2023-04-21T00:57:01;96302.91;;;12.67;75.27
45078;BME280;60508;42.622;25.416;2023-04-21T00:59:29;96305.09;;;12.81;75.19
45078;BME280;60508;42.622;25.416;2023-04-21T01:01:55;96297.03;;;12.81;75.67
45078;BME280;60508;42.622;25.416;2023-04-21T01:04:22;96295.41;;;12.74;75.78
45078;BME280;60508;42.622;25.416;2023-04-21T01:06:48;96289.44;;;12.72;75.80
45078;BME280;60508;42.622;25.416;2023-04-21T01:09:14;96292.69;;;12.74;76.36
45078;BME280;60508;42.622;25.416;2023-04-21T01:11:40;96292.41;;;12.60;77.64
45078;BME280;60508;42.622;25.416;2023-04-21T01:14:06;96288.91;;;12.55;76.45
45078;BME280;60508;42.622;25.416;2023-04-21T01:16:32;96286.97;;;12.24;77.67
45078;BME280;60508;42.622;25.416;2023-04-21T01:19:02;96281.91;;;12.44;77.29
45078;BME280;60508;42.622;25.416;2023-04-21T01:21:38;96281.91;;;12.54;76.44
45078;BME280;60508;42.622;25.416;2023-04-21T01:24:05;96271.13;;;12.54;76.41
45078;BME280;60508;42.622;25.416;2023-04-21T01:26:31;96276.78;;;12.57;76.54
45078;BME280;60508;42.622;25.416;2023-04-21T01:28:57;96282.97;;;12.32;76.94
45078;BME280;60508;42.622;25.416;2023-04-21T01:31:23;96281.69;;;11.82;80.25
45078;BME280;60508;42.622;25.416;2023-04-21T01:33:52;96278.81;;;11.94;80.46
45078;BME280;60508;42.622;25.416;2023-04-21T01:36:18;96282.06;;;12.01;79.80
45078;BME280;60508;42.622;25.416;2023-04-21T01:38:44;96265.88;;;11.96;79.67
45078;BME280;60508;42.622;25.416;2023-04-21T01:41:10;96270.41;;;11.85;80.20
45078;BME280;60508;42.622;25.416;2023-04-21T01:43:37;96273.38;;;11.88;79.56
45078;BME280;60508;42.622;25.416;2023-04-21T01:46:04;96272.28;;;11.79;79.73
45078;BME280;60508;42.622;25.416;2023-04-21T01:48:31;96272.13;;;11.48;81.24
45078;BME280;60508;42.622;25.416;2023-04-21T01:50:58;96275.38;;;11.56;81.14
45078;BME280;60508;42.622;25.416;2023-04-21T01:53:23;96265.09;;;11.37;81.81
45078;BME280;60508;42.622;25.416;2023-04-21T01:55:51;96271.13;;;11.12;82.89
45078;BME280;60508;42.622;25.416;2023-04-21T01:58:17;96278.03;;;11.03;82.29
45078;BME280;60508;42.622;25.416;2023-04-21T02:00:43;96268.25;;;10.86;83.88
45078;BME280;60508;42.622;25.416;2023-04-21T02:03:10;96270.19;;;10.58;83.36
45078;BME280;60508;42.622;25.416;2023-04-21T02:05:36;96265.50;;;10.76;84.26
45078;BME280;60508;42.622;25.416;2023-04-21T02:08:02;96272.84;;;10.91;83.34
45078;BME280;60508;42.622;25.416;2023-04-21T02:10:29;96270.72;;;10.93;83.28
45078;BME280;60508;42.622;25.416;2023-04-21T02:12:55;96269.25;;;10.75;82.72
45078;BME280;60508;42.622;25.416;2023-04-21T02:15:21;96265.78;;;10.80;83.41
45078;BME280;60508;42.622;25.416;2023-04-21T02:17:47;96258.00;;;10.83;83.68
45078;BME280;60508;42.622;25.416;2023-04-21T02:20:14;96258.75;;;10.73;84.55
45078;BME280;60508;42.622;25.416;2023-04-21T02:22:41;96266.03;;;10.78;85.46
45078;BME280;60508;42.622;25.416;2023-04-21T02:25:07;96260.47;;;10.90;84.68
45078;BME280;60508;42.622;25.416;2023-04-21T02:27:33;96260.88;;;10.71;84.17
45078;BME280;60508;42.622;25.416;2023-04-21T02:29:59;96261.44;;;10.41;85.25
45078;BME280;60508;42.622;25.416;2023-04-21T02:32:25;96260.50;;;10.30;85.61
45078;BME280;60508;42.622;25.416;2023-04-21T02:34:52;96265.53;;;10.21;86.86
45078;BME280;60508;42.622;25.416;2023-04-21T02:37:17;96249.28;;;10.06;86.02
45078;BME280;60508;42.622;25.416;2023-04-21T02:39:44;96259.13;;;10.00;86.70
45078;BME280;60508;42.622;25.416;2023-04-21T02:42:09;96256.03;;;9.86;88.50
45078;BME280;60508;42.622;25.416;2023-04-21T02:44:36;96247.69;;;10.10;87.13
45078;BME280;60508;42.622;25.416;2023-04-21T02:47:03;96252.97;;;10.00;87.76
45078;BME280;60508;42.622;25.416;2023-04-21T02:49:29;96240.94;;;10.08;87.86
45078;BME280;60508;42.622;25.416;2023-04-21T02:51:56;96244.41;;;10.03;87.92
45078;BME280;60508;42.622;25.416;2023-04-21T02:54:22;96251.38;;;10.04;86.57
45078;BME280;60508;42.622;25.416;2023-04-21T02:56:48;96257.00;;;10.02;86.69
45078;BME280;60508;42.622;25.416;2023-04-21T02:59:15;96248.06;;;9.92;87.39
45078;BME280;60508;42.622;25.416;2023-04-21T03:01:41;96252.94;;;9.73;88.60
45078;BME280;60508;42.622;25.416;2023-04-21T03:04:07;96265.25;;;9.74;89.10
45078;BME280;60508;42.622;25.416;2023-04-21T03:06:33;96261.53;;;9.75;88.21
45078;BME280;60508;42.622;25.416;2023-04-21T03:08:59;96262.66;;;9.57;87.16
45078;BME280;60508;42.622;25.416;2023-04-21T03:11:26;96270.59;;;9.46;88.23
45078;BME280;60508;42.622;25.416;2023-04-21T03:13:52;96260.41;;;9.26;89.68
45078;BME280;60508;42.622;25.416;2023-04-21T03:16:18;96274.50;;;9.39;88.72
45078;BME280;60508;42.622;25.416;2023-04-21T03:18:44;96272.50;;;9.51;88.17
45078;BME280;60508;42.622;25.416;2023-04-21T03:21:11;96274.09;;;9.30;88.41
45078;BME280;60508;42.622;25.416;2023-04-21T03:23:37;96274.63;;;9.27;88.42
45078;BME280;60508;42.622;25.416;2023-04-21T03:26:07;96275.63;;;9.21;89.79
45078;BME280;60508;42.622;25.416;2023-04-21T03:28:33;96264.41;;;9.24;90.10
45078;BME280;60508;42.622;25.416;2023-04-21T03:31:02;96275.69;;;9.26;90.04
45078;BME280;60508;42.622;25.416;2023-04-21T03:33:28;96277.72;;;9.19;90.64
45078;BME280;60508;42.622;25.416;2023-04-21T03:35:54;96272.16;;;9.03;89.87
45078;BME280;60508;42.622;25.416;2023-04-21T03:38:20;96280.63;;;9.17;91.03
45078;BME280;60508;42.622;25.416;2023-04-21T03:40:46;96276.53;;;9.09;90.86
45078;BME280;60508;42.622;25.416;2023-04-21T03:43:12;96271.16;;;9.09;92.09
45078;BME280;60508;42.622;25.416;2023-04-21T03:45:39;96266.25;;;9.23;89.79
45078;BME280;60508;42.622;25.416;2023-04-21T03:48:04;96276.41;;;9.21;89.79
45078;BME280;60508;42.622;25.416;2023-04-21T03:50:30;96274.63;;;9.27;88.97
45078;BME280;60508;42.622;25.416;2023-04-21T03:52:56;96275.38;;;9.22;88.65
45078;BME280;60508;42.622;25.416;2023-04-21T03:55:22;96270.91;;;9.11;87.99
45078;BME280;60508;42.622;25.416;2023-04-21T03:57:48;96275.38;;;9.22;88.13
45078;BME280;60508;42.622;25.416;2023-04-21T04:00:15;96279.06;;;9.38;87.54
45078;BME280;60508;42.622;25.416;2023-04-21T04:02:41;96279.56;;;9.57;86.16
45078;BME280;60508;42.622;25.416;2023-04-21T04:05:07;96286.94;;;9.28;86.95
45078;BME280;60508;42.622;25.416;2023-04-21T04:07:33;96275.69;;;9.26;87.22
45078;BME280;60508;42.622;25.416;2023-04-21T04:09:59;96283.50;;;9.49;84.76
45078;BME280;60508;42.622;25.416;2023-04-21T04:12:25;96280.38;;;9.36;84.21
45078;BME280;60508;42.622;25.416;2023-04-21T04:14:51;96290.97;;;9.25;85.11
45078;BME280;60508;42.622;25.416;2023-04-21T04:17:17;96284.53;;;9.26;86.44
45078;BME280;60508;42.622;25.416;2023-04-21T04:19:43;96288.66;;;9.34;86.04
45078;BME280;60508;42.622;25.416;2023-04-21T04:22:09;96293.56;;;9.59;85.04
45078;BME280;60508;42.622;25.416;2023-04-21T04:24:35;96288.75;;;9.83;84.28
45078;BME280;60508;42.622;25.416;2023-04-21T04:27:01;96286.91;;;9.67;84.77
45078;BME280;60508;42.622;25.416;2023-04-21T04:29:28;96283.22;;;9.51;86.04
45078;BME280;60508;42.622;25.416;2023-04-21T04:31:54;96287.59;;;9.57;85.89
45078;BME280;60508;42.622;25.416;2023-04-21T04:34:20;96301.13;;;9.45;87.63
45078;BME280;60508;42.622;25.416;2023-04-21T04:36:47;96296.38;;;9.30;89.85
45078;BME280;60508;42.622;25.416;2023-04-21T04:39:15;96292.41;;;9.55;89.32
45078;BME280;60508;42.622;25.416;2023-04-21T04:41:41;96299.53;;;9.66;88.20
45078;BME280;60508;42.622;25.416;2023-04-21T04:44:08;96294.66;;;9.85;87.87
45078;BME280;60508;42.622;25.416;2023-04-21T04:46:34;96300.09;;;9.91;87.76
45078;BME280;60508;42.622;25.416;2023-04-21T04:49:00;96306.41;;;10.01;85.26
45078;BME280;60508;42.622;25.416;2023-04-21T04:51:27;96308.94;;;10.13;85.53
45078;BME280;60508;42.622;25.416;2023-04-21T04:53:53;96299.91;;;10.24;84.62
45078;BME280;60508;42.622;25.416;2023-04-21T04:56:19;96300.03;;;10.35;84.67
45078;BME280;60508;42.622;25.416;2023-04-21T04:58:46;96295.81;;;10.39;83.55
45078;BME280;60508;42.622;25.416;2023-04-21T05:01:15;96301.13;;;10.34;84.95
45078;BME280;60508;42.622;25.416;2023-04-21T05:03:42;96310.44;;;10.31;85.30
45078;BME280;60508;42.622;25.416;2023-04-21T05:06:08;96307.72;;;10.26;84.39
45078;BME280;60508;42.622;25.416;2023-04-21T05:08:35;96305.31;;;10.02;85.43
45078;BME280;60508;42.622;25.416;2023-04-21T05:11:02;96303.63;;;9.96;86.09
45078;BME280;60508;42.622;25.416;2023-04-21T05:13:28;96311.56;;;10.08;86.42
45078;BME280;60508;42.622;25.416;2023-04-21T05:15:58;96301.56;;;10.03;86.98
45078;BME280;60508;42.622;25.416;2023-04-21T05:18:27;96306.50;;;10.12;87.35
45078;BME280;60508;42.622;25.416;2023-04-21T05:20:53;96307.28;;;10.34;86.58
45078;BME280;60508;42.622;25.416;2023-04-21T05:23:19;96304.53;;;10.29;85.18
45078;BME280;60508;42.622;25.416;2023-04-21T05:25:45;96301.72;;;10.41;84.48
45078;BME280;60508;42.622;25.416;2023-04-21T05:28:11;96302.19;;;10.33;83.75
45078;BME280;60508;42.622;25.416;2023-04-21T05:30:37;96305.28;;;10.47;83.76
45078;BME280;60508;42.622;25.416;2023-04-21T05:33:03;96306.38;;;10.51;83.97
45078;BME280;60508;42.622;25.416;2023-04-21T05:35:29;96296.59;;;10.67;83.75
45078;BME280;60508;42.622;25.416;2023-04-21T05:37:55;96302.22;;;10.65;82.93
45078;BME280;60508;42.622;25.416;2023-04-21T05:40:22;96301.69;;;10.68;82.65
45078;BME280;60508;42.622;25.416;2023-04-21T05:42:48;96300.75;;;10.85;82.34
45078;BME280;60508;42.622;25.416;2023-04-21T05:45:14;96288.44;;;10.89;81.25
45078;BME280;60508;42.622;25.416;2023-04-21T05:47:40;96296.28;;;10.95;82.32
45078;BME280;60508;42.622;25.416;2023-04-21T05:50:06;96288.75;;;10.98;82.62
45078;BME280;60508;42.622;25.416;2023-04-21T05:52:32;96297.47;;;11.10;81.11
45078;BME280;60508;42.622;25.416;2023-04-21T05:55:00;96301.66;;;10.95;81.56
45078;BME280;60508;42.622;25.416;2023-04-21T05:57:26;96292.53;;;10.96;81.18
45078;BME280;60508;42.622;25.416;2023-04-21T05:59:52;96293.41;;;11.07;81.29
45078;BME280;60508;42.622;25.416;2023-04-21T06:02:19;96300.38;;;11.03;81.67
45078;BME280;60508;42.622;25.416;2023-04-21T06:04:45;96275.34;;;11.03;80.57
45078;BME280;60508;42.622;25.416;2023-04-21T06:07:11;96291.88;;;11.22;80.16
45078;BME280;60508;42.622;25.416;2023-04-21T06:09:38;96278.22;;;11.33;79.52
45078;BME280;60508;42.622;25.416;2023-04-21T06:12:05;96280.53;;;11.67;79.39
45078;BME280;60508;42.622;25.416;2023-04-21T06:14:32;96273.25;;;11.58;78.43
45078;BME280;60508;42.622;25.416;2023-04-21T06:16:58;96284.59;;;11.65;78.88
45078;BME280;60508;42.622;25.416;2023-04-21T06:19:24;96271.13;;;11.65;78.65
45078;BME280;60508;42.622;25.416;2023-04-21T06:21:50;96280.84;;;11.66;79.06
45078;BME280;60508;42.622;25.416;2023-04-21T06:24:17;96280.59;;;11.73;77.52
45078;BME280;60508;42.622;25.416;2023-04-21T06:26:51;96271.94;;;11.65;77.89
45078;BME280;60508;42.622;25.416;2023-04-21T06:29:17;96281.13;;;11.69;77.25
45078;BME280;60508;42.622;25.416;2023-04-21T06:31:44;96281.66;;;11.72;77.41
45078;BME280;60508;42.622;25.416;2023-04-21T06:34:10;96287.06;;;11.77;77.40
45078;BME280;60508;42.622;25.416;2023-04-21T06:36:36;96288.69;;;11.83;78.02
45078;BME280;60508;42.622;25.416;2023-04-21T06:39:02;96286.13;;;12.03;78.13
45078;BME280;60508;42.622;25.416;2023-04-21T06:41:30;96285.88;;;12.15;77.82
45078;BME280;60508;42.622;25.416;2023-04-21T06:43:56;96285.31;;;12.08;77.07
45078;BME280;60508;42.622;25.416;2023-04-21T06:46:22;96287.50;;;12.21;77.61
45078;BME280;60508;42.622;25.416;2023-04-21T06:48:50;96290.19;;;12.21;77.01
45078;BME280;60508;42.622;25.416;2023-04-21T06:51:16;96289.63;;;12.14;77.28
45078;BME280;60508;42.622;25.416;2023-04-21T06:53:42;96286.44;;;12.22;77.06
45078;BME280;60508;42.622;25.416;2023-04-21T06:56:08;96286.97;;;12.35;76.47
45078;BME280;60508;42.622;25.416;2023-04-21T06:58:35;96296.69;;;12.41;76.90
45078;BME280;60508;42.622;25.416;2023-04-21T07:01:00;96295.38;;;12.54;75.97
45078;BME280;60508;42.622;25.416;2023-04-21T07:03:27;96294.00;;;12.51;76.83
45078;BME280;60508;42.622;25.416;2023-04-21T07:05:52;96281.91;;;12.54;77.40
45078;BME280;60508;42.622;25.416;2023-04-21T07:08:19;96284.59;;;12.59;76.47
45078;BME280;60508;42.622;25.416;2023-04-21T07:10:44;96288.91;;;12.65;76.32
45078;BME280;60508;42.622;25.416;2023-04-21T07:13:12;96291.34;;;12.82;77.66
45078;BME280;60508;42.622;25.416;2023-04-21T07:15:38;96285.16;;;12.92;77.72
45078;BME280;60508;42.622;25.416;2023-04-21T07:18:05;96279.47;;;12.88;77.22
45078;BME280;60508;42.622;25.416;2023-04-21T07:20:31;96291.06;;;13.04;77.91
45078;BME280;60508;42.622;25.416;2023-04-21T07:22:57;96288.38;;;13.14;77.73
45078;BME280;60508;42.622;25.416;2023-04-21T07:25:24;96289.16;;;13.05;77.82
45078;BME280;60508;42.622;25.416;2023-04-21T07:27:52;96277.56;;;13.25;77.96
45078;BME280;60508;42.622;25.416;2023-04-21T07:30:18;96298.88;;;13.47;77.55
45078;BME280;60508;42.622;25.416;2023-04-21T07:32:46;96293.19;;;13.54;74.66
45078;BME280;60508;42.622;25.416;2023-04-21T07:35:12;96300.44;;;13.53;74.41
45078;BME280;60508;42.622;25.416;2023-04-21T07:37:38;96291.28;;;13.49;73.24
45078;BME280;60508;42.622;25.416;2023-04-21T07:40:07;96301.84;;;13.45;73.13
45078;BME280;60508;42.622;25.416;2023-04-21T07:42:33;96298.31;;;13.45;71.67
45078;BME280;60508;42.622;25.416;2023-04-21T07:44:59;96297.50;;;13.44;70.09
45078;BME280;60508;42.622;25.416;2023-04-21T07:47:28;96304.81;;;13.44;69.67
45078;BME280;60508;42.622;25.416;2023-04-21T07:49:56;96308.56;;;13.48;69.12
45078;BME280;60508;42.622;25.416;2023-04-21T07:52:22;96297.09;;;13.87;67.74
45078;BME280;60508;42.622;25.416;2023-04-21T07:54:49;96295.03;;;14.23;68.10
45078;BME280;60508;42.622;25.416;2023-04-21T07:57:15;96287.59;;;14.50;64.55
45078;BME280;60508;42.622;25.416;2023-04-21T07:59:41;96286.50;;;14.90;63.27
45078;BME280;60508;42.622;25.416;2023-04-21T08:02:08;96289.09;;;15.35;62.71
45078;BME280;60508;42.622;25.416;2023-04-21T08:04:34;96290.31;;;15.72;61.01
45078;BME280;60508;42.622;25.416;2023-04-21T08:07:00;96279.66;;;16.05;60.68
45078;BME280;60508;42.622;25.416;2023-04-21T08:09:26;96293.53;;;16.22;57.17
45078;BME280;60508;42.622;25.416;2023-04-21T08:11:52;96286.53;;;15.97;56.55
45078;BME280;60508;42.622;25.416;2023-04-21T08:14:20;96285.28;;;15.90;53.21
45078;BME280;60508;42.622;25.416;2023-04-21T08:16:47;96279.78;;;15.70;51.28
45078;BME280;60508;42.622;25.416;2023-04-21T08:19:13;96289.00;;;15.94;51.51
45078;BME280;60508;42.622;25.416;2023-04-21T08:21:39;96295.34;;;16.08;50.23
45078;BME280;60508;42.622;25.416;2023-04-21T08:24:05;96285.25;;;16.14;48.30
45078;BME280;60508;42.622;25.416;2023-04-21T08:26:31;96296.91;;;16.33;50.16
45078;BME280;60508;42.622;25.416;2023-04-21T08:28:59;96297.41;;;16.35;47.76
45078;BME280;60508;42.622;25.416;2023-04-21T08:31:26;96283.72;;;16.46;46.32
45078;BME280;60508;42.622;25.416;2023-04-21T08:33:52;96289.06;;;16.51;47.70
45078;BME280;60508;42.622;25.416;2023-04-21T08:36:18;96291.50;;;16.33;45.54
45078;BME280;60508;42.622;25.416;2023-04-21T08:38:45;96281.66;;;16.56;46.86
45078;BME280;60508;42.622;25.416;2023-04-21T08:41:12;96284.91;;;16.58;45.15
45078;BME280;60508;42.622;25.416;2023-04-21T08:43:38;96280.25;;;16.21;46.49
45078;BME280;60508;42.622;25.416;2023-04-21T08:46:06;96282.56;;;16.33;47.06
45078;BME280;60508;42.622;25.416;2023-04-21T08:48:36;96270.28;;;16.73;46.38
45078;BME280;60508;42.622;25.416;2023-04-21T08:51:06;96289.75;;;17.13;44.83
45078;BME280;60508;42.622;25.416;2023-04-21T08:53:35;96276.38;;;17.92;43.97
45078;BME280;60508;42.622;25.416;2023-04-21T08:56:02;96273.16;;;17.90;43.07
45078;BME280;60508;42.622;25.416;2023-04-21T08:58:29;96276.19;;;17.88;42.43
45078;BME280;60508;42.622;25.416;2023-04-21T09:00:54;96285.25;;;18.48;40.78
45078;BME280;60508;42.622;25.416;2023-04-21T09:03:22;96283.16;;;18.31;40.68
45078;BME280;60508;42.622;25.416;2023-04-21T09:05:59;96277.91;;;19.07;40.23
45078;BME280;60508;42.622;25.416;2023-04-21T09:08:27;96278.00;;;19.25;38.70
45078;BME280;60508;42.622;25.416;2023-04-21T09:10:55;96279.72;;;19.43;39.77
45078;BME280;60508;42.622;25.416;2023-04-21T09:13:29;96282.31;;;20.46;37.90
45078;BME280;60508;42.622;25.416;2023-04-21T09:15:55;96265.72;;;21.21;37.47
45078;BME280;60508;42.622;25.416;2023-04-21T09:18:23;96264.34;;;20.80;36.58
45078;BME280;60508;42.622;25.416;2023-04-21T09:20:52;96289.09;;;19.91;36.76
45078;BME280;60508;42.622;25.416;2023-04-21T09:23:29;96271.34;;;18.86;39.75
45078;BME280;60508;42.622;25.416;2023-04-21T09:25:56;96274.44;;;17.50;41.35
45078;BME280;60508;42.622;25.416;2023-04-21T09:28:22;96279.00;;;17.97;42.06
45078;BME280;60508;42.622;25.416;2023-04-21T09:30:54;96276.63;;;19.13;40.74
45078;BME280;60508;42.622;25.416;2023-04-21T09:33:21;96274.44;;;19.15;39.89
45078;BME280;60508;42.622;25.416;2023-04-21T09:35:47;96271.34;;;18.86;41.07
45078;BME280;60508;42.622;25.416;2023-04-21T09:38:14;96275.38;;;18.74;41.00
45078;BME280;60508;42.622;25.416;2023-04-21T09:40:41;96265.34;;;18.24;41.51
45078;BME280;60508;42.622;25.416;2023-04-21T09:43:08;96259.16;;;18.47;41.96
45078;BME280;60508;42.622;25.416;2023-04-21T09:45:34;96263.94;;;18.41;41.56
45078;BME280;60508;42.622;25.416;2023-04-21T09:48:02;96262.69;;;18.11;40.97
45078;BME280;60508;42.622;25.416;2023-04-21T09:50:29;96270.19;;;17.86;41.94
45078;BME280;60508;42.622;25.416;2023-04-21T09:52:58;96261.25;;;17.85;40.98
45078;BME280;60508;42.622;25.416;2023-04-21T09:55:28;96270.31;;;17.81;41.24
45078;BME280;60508;42.622;25.416;2023-04-21T09:57:58;96253.63;;;17.74;40.50
45078;BME280;60508;42.622;25.416;2023-04-21T10:00:26;96252.78;;;17.45;41.22
45078;BME280;60508;42.622;25.416;2023-04-21T10:02:54;96265.09;;;17.70;40.49
45078;BME280;60508;42.622;25.416;2023-04-21T10:05:23;96250.16;;;18.23;40.98
45078;BME280;60508;42.622;25.416;2023-04-21T10:07:49;96248.75;;;18.49;40.68
45078;BME280;60508;42.622;25.416;2023-04-21T10:10:22;96236.06;;;19.03;40.47
45078;BME280;60508;42.622;25.416;2023-04-21T10:12:49;96241.66;;;18.98;41.19
45078;BME280;60508;42.622;25.416;2023-04-21T10:15:39;96238.16;;;19.38;39.28
45078;BME280;60508;42.622;25.416;2023-04-21T10:18:15;96221.56;;;19.16;39.17
45078;BME280;60508;42.622;25.416;2023-04-21T10:21:01;96227.88;;;18.80;39.04
45078;BME280;60508;42.622;25.416;2023-04-21T10:23:43;96239.69;;;18.90;39.15
45078;BME280;60508;42.622;25.416;2023-04-21T10:26:16;96251.00;;;17.96;40.83
45078;BME280;60508;42.622;25.416;2023-04-21T10:28:55;96235.50;;;17.41;42.19
45078;BME280;60508;42.622;25.416;2023-04-21T10:31:22;96255.81;;;17.44;42.72
45078;BME280;60508;42.622;25.416;2023-04-21T10:39:08;96249.56;;;17.29;43.10
45078;BME280;60508;42.622;25.416;2023-04-21T10:41:37;96239.31;;;17.40;44.24
45078;BME280;60508;42.622;25.416;2023-04-21T10:46:44;96243.88;;;17.59;43.03
45078;BME280;60508;42.622;25.416;2023-04-21T10:49:20;96251.38;;;17.34;43.09
45078;BME280;60508;42.622;25.416;2023-04-21T10:54:23;96249.47;;;17.34;44.13
45078;BME280;60508;42.622;25.416;2023-04-21T10:56:52;96255.72;;;17.49;43.48
45078;BME280;60508;42.622;25.416;2023-04-21T10:59:19;96255.72;;;17.49;44.03
45078;BME280;60508;42.622;25.416;2023-04-21T11:01:45;96255.03;;;17.57;44.52
45078;BME280;60508;42.622;25.416;2023-04-21T11:04:19;96259.47;;;17.67;43.36
45078;BME280;60508;42.622;25.416;2023-04-21T11:09:30;96254.91;;;17.48;41.90
45078;BME280;60508;42.622;25.416;2023-04-21T11:11:57;96235.59;;;17.36;42.92
45078;BME280;60508;42.622;25.416;2023-04-21T11:14:23;96249.69;;;17.38;43.42
45078;BME280;60508;42.622;25.416;2023-04-21T11:16:49;96250.00;;;17.78;43.72
45078;BME280;60508;42.622;25.416;2023-04-21T11:19:16;96246.31;;;19.69;40.29
45078;BME280;60508;42.622;25.416;2023-04-21T11:21:47;96247.88;;;18.98;41.38
45078;BME280;60508;42.622;25.416;2023-04-21T11:24:14;96254.13;;;18.54;42.17
45078;BME280;60508;42.622;25.416;2023-04-21T11:26:40;96251.44;;;18.40;43.04
45078;BME280;60508;42.622;25.416;2023-04-21T11:29:10;96253.19;;;18.08;42.98
45078;BME280;60508;42.622;25.416;2023-04-21T11:31:38;96258.63;;;17.66;43.58
45078;BME280;60508;42.622;25.416;2023-04-21T11:34:05;96252.00;;;17.59;43.88
45078;BME280;60508;42.622;25.416;2023-04-21T11:36:36;96252.63;;;17.56;44.85
45078;BME280;60508;42.622;25.416;2023-04-21T11:39:06;96245.88;;;17.67;43.86
45078;BME280;60508;42.622;25.416;2023-04-21T11:41:44;96228.63;;;18.13;41.92
45078;BME280;60508;42.622;25.416;2023-04-21T11:44:12;96236.88;;;18.22;42.28
45078;BME280;60508;42.622;25.416;2023-04-21T11:46:45;96250.09;;;18.01;43.20
45078;BME280;60508;42.622;25.416;2023-04-21T11:49:14;96239.41;;;18.04;43.29
45078;BME280;60508;42.622;25.416;2023-04-21T11:51:43;96233.78;;;18.37;43.52
45078;BME280;60508;42.622;25.416;2023-04-21T11:54:11;96240.94;;;19.46;41.67
45078;BME280;60508;42.622;25.416;2023-04-21T11:56:41;96234.00;;;20.82;38.20
45078;BME280;60508;42.622;25.416;2023-04-21T11:59:14;96231.56;;;20.89;37.29
45078;BME280;60508;42.622;25.416;2023-04-21T12:01:51;96243.25;;;22.01;35.56
45078;BME280;60508;42.622;25.416;2023-04-21T12:04:23;96256.56;;;22.63;33.79
45078;BME280;60508;42.622;25.416;2023-04-21T12:07:01;96267.03;;;22.82;33.62
45078;BME280;60508;42.622;25.416;2023-04-21T12:09:27;96258.81;;;22.10;35.21
45078;BME280;60508;42.622;25.416;2023-04-21T12:11:55;96254.63;;;21.26;36.06
45078;BME280;60508;42.622;25.416;2023-04-21T12:14:24;96252.53;;;21.23;36.18
45078;BME280;60508;42.622;25.416;2023-04-21T12:16:54;96247.94;;;22.31;34.28
45078;BME280;60508;42.622;25.416;2023-04-21T12:19:35;96238.19;;;24.13;31.44
45078;BME280;60508;42.622;25.416;2023-04-21T12:22:06;96246.13;;;24.55;30.74
45078;BME280;60508;42.622;25.416;2023-04-21T12:24:32;96238.47;;;23.49;29.99
45078;BME280;60508;42.622;25.416;2023-04-21T12:26:59;96237.72;;;24.35;30.72
45078;BME280;60508;42.622;25.416;2023-04-21T12:29:25;96237.50;;;24.69;30.26
45078;BME280;60508;42.622;25.416;2023-04-21T12:31:51;96238.38;;;23.33;31.70
45078;BME280;60508;42.622;25.416;2023-04-21T12:34:16;96222.13;;;21.51;33.43
45078;BME280;60508;42.622;25.416;2023-04-21T12:36:42;96227.22;;;20.35;36.16
45078;BME280;60508;42.622;25.416;2023-04-21T12:39:08;96228.59;;;19.49;37.51
45078;BME280;60508;42.622;25.416;2023-04-21T12:41:35;96226.56;;;18.92;38.42
45078;BME280;60508;42.622;25.416;2023-04-21T12:44:01;96227.72;;;18.54;38.99
45078;BME280;60508;42.622;25.416;2023-04-21T12:46:27;96229.56;;;19.44;37.35
45078;BME280;60508;42.622;25.416;2023-04-21T12:48:53;96217.44;;;21.51;33.68
45078;BME280;60508;42.622;25.416;2023-04-21T12:51:19;96221.63;;;22.81;30.93
45078;BME280;60508;42.622;25.416;2023-04-21T12:53:45;96226.00;;;22.10;31.23
45078;BME280;60508;42.622;25.416;2023-04-21T12:56:11;96228.97;;;21.66;32.08
45078;BME280;60508;42.622;25.416;2023-04-21T12:58:37;96220.50;;;20.85;34.10
45078;BME280;60508;42.622;25.416;2023-04-21T13:01:04;96214.16;;;21.20;33.99
45078;BME280;60508;42.622;25.416;2023-04-21T13:03:30;96216.38;;;22.54;31.94
45078;BME280;60508;42.622;25.416;2023-04-21T13:05:56;96222.59;;;21.83;32.37